Time;durP1;ratioP1;P1;durP2;ratioP2;P2;SDS_P1;SDS_P2;PMS_P1;PMS_P2;Temp;Humidity;BMP_temperature;BMP_pressure;BME280_temperature;BME280_humidity;BME280_pressure;Samples;Min_cycle;Max_cycle;Signal;HPM_P1;HPM_P2
2021/03/26 00:01:59;;;;;;;123.50;69.03;;;;;;;;;;5014879;28;20034;-61
2021/03/26 00:04:25;;;;;;;116.70;66.03;;;;;;;;;;5014891;28;20117;-61
2021/03/26 00:06:51;;;;;;;120.15;67.35;;;;;;;;;;5014672;28;20128;-61
2021/03/26 00:09:19;;;;;;;122.47;70.00;;;;;;;;;;4997414;28;20026;-61
2021/03/26 00:11:45;;;;;;;118.15;67.80;;;;;;;;;;5014759;28;20072;-61
2021/03/26 00:14:11;;;;;;;122.22;70.32;;;;;;;;;;5014714;28;20056;-61
2021/03/26 00:16:36;;;;;;;125.70;71.13;;;;;;;;;;5014625;28;20433;-61
2021/03/26 00:19:02;;;;;;;127.65;72.20;;;;;;;;;;5014753;28;20053;-61
2021/03/26 00:21:27;;;;;;;121.22;68.78;;;;;;;;;;5014809;28;20061;-61
2021/03/26 00:23:53;;;;;;;119.10;67.80;;;;;;;;;;5014728;28;20038;-61
2021/03/26 00:26:19;;;;;;;115.80;66.68;;;;;;;;;;5014305;28;20116;-61
2021/03/26 00:28:44;;;;;;;115.43;64.28;;;;;;;;;;5013765;28;20053;-61
2021/03/26 00:31:10;;;;;;;118.45;65.57;;;;;;;;;;5014483;28;20378;-61
2021/03/26 00:33:35;;;;;;;121.57;68.05;;;;;;;;;;5014227;28;20022;-61
2021/03/26 00:36:01;;;;;;;117.97;65.57;;;;;;;;;;5014245;28;20355;-61
2021/03/26 00:38:27;;;;;;;118.13;64.72;;;;;;;;;;5014113;28;20519;-61
2021/03/26 00:40:53;;;;;;;121.20;66.07;;;;;;;;;;5014316;28;20097;-61
2021/03/26 00:43:19;;;;;;;116.32;64.70;;;;;;;;;;5014261;28;20041;-61
2021/03/26 00:45:45;;;;;;;114.93;62.80;;;;;;;;;;5028880;28;20108;-61
2021/03/26 00:48:11;;;;;;;120.97;64.55;;;;;;;;;;5013877;28;20463;-61
2021/03/26 00:50:44;;;;;;;124.00;67.53;;;;;;;;;;4996494;28;20026;-61
2021/03/26 00:53:14;;;;;;;103.78;60.28;;;;;;;;;;4995839;28;20026;-61
2021/03/26 00:55:40;;;;;;;103.20;59.33;;;;;;;;;;4996382;28;20013;-61
2021/03/26 00:58:06;;;;;;;98.25;57.22;;;;;;;;;;5013537;28;20370;-61
2021/03/26 01:00:32;;;;;;;109.07;58.90;;;;;;;;;;5013717;28;20022;-61
2021/03/26 01:02:58;;;;;;;113.05;62.35;;;;;;;;;;5013747;28;20378;-61
2021/03/26 01:05:29;;;;;;;111.85;62.50;;;;;;;;;;4996279;28;20022;-61
2021/03/26 01:07:55;;;;;;;104.05;58.53;;;;;;;;;;4996157;28;20033;-63
2021/03/26 01:10:23;;;;;;;102.68;57.60;;;;;;;;;;4995828;28;20112;-62
2021/03/26 01:12:49;;;;;;;99.70;57.08;;;;;;;;;;4996023;28;20038;-63
2021/03/26 01:15:16;;;;;;;104.80;58.08;;;;;;;;;;4996190;28;20036;-63
2021/03/26 01:17:41;;;;;;;102.15;58.53;;;;;;;;;;4995544;28;20056;-63
2021/03/26 01:20:09;;;;;;;100.03;57.22;;;;;;;;;;5013991;28;20489;-60
2021/03/26 01:22:35;;;;;;;98.82;56.72;;;;;;;;;;5028979;28;20030;-60
2021/03/26 01:25:09;;;;;;;102.45;58.30;;;;;;;;;;5029049;28;20030;-60
2021/03/26 01:27:38;;;;;;;99.80;57.53;;;;;;;;;;5028803;28;20030;-61
2021/03/26 01:30:13;;;;;;;97.93;57.90;;;;;;;;;;5028887;28;20069;-60
2021/03/26 01:32:39;;;;;;;104.80;58.75;;;;;;;;;;5013865;28;20067;-61
2021/03/26 01:35:05;;;;;;;101.10;57.30;;;;;;;;;;5013399;28;20014;-60
2021/03/26 01:37:32;;;;;;;101.53;58.03;;;;;;;;;;5028593;28;20042;-61
2021/03/26 01:39:57;;;;;;;100.50;56.35;;;;;;;;;;5013828;28;20465;-61
2021/03/26 01:42:25;;;;;;;101.57;56.78;;;;;;;;;;5013368;28;20030;-61
2021/03/26 01:44:51;;;;;;;100.45;56.78;;;;;;;;;;5028622;28;20014;-60
2021/03/26 01:47:24;;;;;;;109.22;61.25;;;;;;;;;;5012979;28;20109;-61
2021/03/26 01:49:50;;;;;;;100.95;57.05;;;;;;;;;;4996313;28;20121;-60
2021/03/26 01:52:15;;;;;;;97.60;56.20;;;;;;;;;;5013639;28;20046;-61
2021/03/26 01:54:42;;;;;;;99.90;57.58;;;;;;;;;;5028274;28;20121;-61
2021/03/26 01:57:13;;;;;;;99.43;56.78;;;;;;;;;;4995739;28;20029;-61
2021/03/26 01:59:58;;;;;;;95.45;56.10;;;;;;;;;;5013259;28;20037;-62
2021/03/26 02:02:26;;;;;;;98.85;54.45;;;;;;;;;;5028465;28;20044;-62
2021/03/26 02:05:14;;;;;;;93.15;54.97;;;;;;;;;;5005100;28;20041;-63
2021/03/26 02:07:52;;;;;;;97.25;56.17;;;;;;;;;;4999710;28;20030;-63
2021/03/26 02:10:23;;;;;;;93.57;55.13;;;;;;;;;;4999677;28;20029;-63
2021/03/26 02:12:55;;;;;;;93.82;54.40;;;;;;;;;;4999438;28;20386;-63
2021/03/26 02:15:29;;;;;;;93.75;53.72;;;;;;;;;;4999316;28;20033;-63
2021/03/26 02:17:55;;;;;;;88.50;52.05;;;;;;;;;;4998202;28;20050;-63
2021/03/26 02:20:28;;;;;;;95.18;54.53;;;;;;;;;;4999430;28;20038;-63
2021/03/26 02:22:55;;;;;;;89.85;52.33;;;;;;;;;;5015223;28;20029;-63
2021/03/26 02:25:24;;;;;;;89.88;52.65;;;;;;;;;;5031828;28;20069;-63
2021/03/26 02:27:50;;;;;;;94.15;53.58;;;;;;;;;;5031850;28;20053;-63
2021/03/26 02:30:22;;;;;;;90.93;52.53;;;;;;;;;;5031742;28;20116;-63
2021/03/26 02:32:50;;;;;;;93.35;53.92;;;;;;;;;;5031667;28;20029;-63
2021/03/26 02:35:27;;;;;;;92.80;52.63;;;;;;;;;;5048122;28;20021;-63
2021/03/26 02:38:06;;;;;;;91.47;52.88;;;;;;;;;;5031781;28;20034;-63
2021/03/26 02:40:36;;;;;;;92.93;51.60;;;;;;;;;;5031579;28;20038;-63
2021/03/26 02:43:21;;;;;;;85.90;49.97;;;;;;;;;;5031561;28;20038;-62
2021/03/26 02:45:58;;;;;;;91.72;52.45;;;;;;;;;;5016496;28;20038;-63
2021/03/26 02:48:28;;;;;;;92.55;53.55;;;;;;;;;;5031433;28;20066;-61
2021/03/26 02:51:20;;;;;;;87.43;51.90;;;;;;;;;;5016193;28;20339;-61
2021/03/26 02:53:50;;;;;;;93.90;52.25;;;;;;;;;;5030795;28;20070;-61
2021/03/26 02:56:19;;;;;;;95.70;54.38;;;;;;;;;;5031529;28;20029;-61
2021/03/26 02:58:53;;;;;;;86.35;51.83;;;;;;;;;;5031553;28;20026;-61
2021/03/26 03:01:30;;;;;;;90.47;51.13;;;;;;;;;;5047776;28;20125;-62
2021/03/26 03:03:58;;;;;;;87.25;50.47;;;;;;;;;;5031489;28;20030;-61
2021/03/26 03:06:33;;;;;;;86.63;51.30;;;;;;;;;;5031257;28;20037;-62
2021/03/26 03:09:19;;;;;;;92.07;49.20;;;;;;;;;;5016676;28;20100;-62
2021/03/26 03:11:48;;;;;;;89.60;52.13;;;;;;;;;;5016126;28;20053;-61
2021/03/26 03:14:22;;;;;;;87.10;50.50;;;;;;;;;;5015872;28;20041;-61
2021/03/26 03:16:58;;;;;;;83.82;49.60;;;;;;;;;;5030159;28;20038;-61
2021/03/26 03:19:44;;;;;;;82.13;48.33;;;;;;;;;;5030796;28;20046;-62
2021/03/26 03:22:23;;;;;;;87.18;49.78;;;;;;;;;;5014144;28;20026;-63
2021/03/26 03:24:49;;;;;;;85.47;51.90;;;;;;;;;;4998244;28;20034;-63
2021/03/26 03:27:19;;;;;;;90.13;51.33;;;;;;;;;;5030561;28;20034;-63
2021/03/26 03:29:59;;;;;;;94.93;52.50;;;;;;;;;;5030665;28;20365;-63
2021/03/26 03:33:04;;;;;;;96.15;53.78;;;;;;;;;;5005426;28;20033;-62
2021/03/26 03:35:59;;;;;;;89.03;50.00;;;;;;;;;;5030896;28;20034;-62
2021/03/26 03:38:34;;;;;;;88.10;52.30;;;;;;;;;;5030152;28;20366;-62
2021/03/26 03:41:05;;;;;;;90.88;51.53;;;;;;;;;;5015569;28;20025;-62
2021/03/26 03:43:41;;;;;;;88.95;51.08;;;;;;;;;;5015449;28;20502;-62
2021/03/26 03:46:25;;;;;;;89.22;50.72;;;;;;;;;;5015238;28;20030;-62
2021/03/26 03:49:12;;;;;;;88.88;50.70;;;;;;;;;;5015582;28;20037;-62
2021/03/26 03:51:45;;;;;;;96.88;52.97;;;;;;;;;;5015145;28;20034;-61
2021/03/26 03:54:10;;;;;;;87.93;50.72;;;;;;;;;;5015554;28;20529;-61
2021/03/26 03:56:40;;;;;;;88.50;51.83;;;;;;;;;;5015165;28;20152;-61
2021/03/26 03:59:07;;;;;;;88.47;50.03;;;;;;;;;;5046897;28;20482;-62
2021/03/26 04:01:51;;;;;;;86.40;51.03;;;;;;;;;;5011780;28;20030;-63
2021/03/26 04:04:23;;;;;;;93.80;53.95;;;;;;;;;;5030060;28;20026;-63
2021/03/26 04:06:56;;;;;;;92.07;53.10;;;;;;;;;;5014055;28;20505;-63
2021/03/26 04:09:26;;;;;;;89.25;52.75;;;;;;;;;;4997295;28;20115;-61
2021/03/26 04:12:02;;;;;;;93.60;52.78;;;;;;;;;;4997494;28;20026;-61
2021/03/26 04:14:50;;;;;;;87.32;51.35;;;;;;;;;;4997402;28;20051;-61
2021/03/26 04:17:21;;;;;;;88.93;50.38;;;;;;;;;;4996010;28;20037;-62
2021/03/26 04:19:49;;;;;;;89.93;51.83;;;;;;;;;;4995349;28;20034;-62
2021/03/26 04:22:20;;;;;;;87.88;52.92;;;;;;;;;;4995358;28;20033;-62
2021/03/26 04:24:58;;;;;;;90.10;52.63;;;;;;;;;;4977686;28;20041;-62
2021/03/26 04:27:28;;;;;;;94.20;51.60;;;;;;;;;;4994785;28;20157;-62
2021/03/26 04:30:12;;;;;;;94.60;53.53;;;;;;;;;;4977722;28;20030;-62
2021/03/26 04:32:57;;;;;;;;;;;;;;;;;;4988065;28;20058;-62
2021/03/26 04:35:24;;;;;;;87.22;50.45;;;;;;;;;;4993458;28;19909;-61
2021/03/26 04:38:07;;;;;;;86.45;49.65;;;;;;;;;;4977393;28;20045;-62
2021/03/26 04:41:08;;;;;;;91.25;50.70;;;;;;;;;;4977286;28;20026;-62
2021/03/26 04:43:54;;;;;;;92.05;53.50;;;;;;;;;;4957085;28;20125;-61
2021/03/26 04:46:24;;;;;;;94.05;52.88;;;;;;;;;;4992101;28;20502;-61
2021/03/26 04:49:05;;;;;;;92.32;51.53;;;;;;;;;;4977600;28;20114;-61
2021/03/26 04:51:46;;;;;;;90.63;51.42;;;;;;;;;;4977274;28;20391;-61
2021/03/26 04:54:30;;;;;;;90.40;51.28;;;;;;;;;;4995130;28;20038;-61
2021/03/26 04:57:16;;;;;;;94.72;51.83;;;;;;;;;;4976845;28;20062;-62
2021/03/26 04:59:45;;;;;;;91.97;51.58;;;;;;;;;;4976944;28;20027;-62
2021/03/26 05:02:19;;;;;;;88.97;51.03;;;;;;;;;;4993718;28;20053;-61
2021/03/26 05:04:50;;;;;;;94.65;52.05;;;;;;;;;;4994391;28;20501;-63
2021/03/26 05:07:20;;;;;;;94.95;53.25;;;;;;;;;;5008538;28;20038;-63
2021/03/26 05:09:50;;;;;;;95.22;52.10;;;;;;;;;;4976997;28;20049;-63
2021/03/26 05:12:41;;;;;;;94.38;53.65;;;;;;;;;;4976576;28;20498;-63
2021/03/26 05:15:25;;;;;;;102.70;58.13;;;;;;;;;;4976513;28;20113;-63
2021/03/26 05:18:12;;;;;;;97.05;54.78;;;;;;;;;;4982276;28;20057;-63
2021/03/26 05:20:54;;;;;;;96.10;54.33;;;;;;;;;;5029029;28;20085;-63
2021/03/26 05:23:26;;;;;;;98.40;54.88;;;;;;;;;;5013778;28;20049;-63
2021/03/26 05:25:57;;;;;;;101.28;54.50;;;;;;;;;;5013791;28;20116;-63
2021/03/26 05:28:33;;;;;;;95.82;54.78;;;;;;;;;;5028855;28;20038;-63
2021/03/26 05:31:12;;;;;;;;;;;;;;;;;;5014133;28;20026;-63
2021/03/26 05:33:46;;;;;;;104.93;55.58;;;;;;;;;;4996270;28;20507;-63
2021/03/26 05:36:12;;;;;;;107.00;59.70;;;;;;;;;;4996169;28;20521;-62
2021/03/26 05:39:07;;;;;;;108.13;60.53;;;;;;;;;;5014318;28;20042;-62
2021/03/26 05:41:51;;;;;;;109.00;60.13;;;;;;;;;;5013340;28;20084;-63
2021/03/26 05:44:35;;;;;;;111.38;60.47;;;;;;;;;;5017607;28;20053;-63
2021/03/26 05:47:19;;;;;;;114.43;61.72;;;;;;;;;;5032286;28;20390;-63
2021/03/26 05:49:53;;;;;;;121.25;64.05;;;;;;;;;;4999391;28;20044;-62
2021/03/26 05:52:19;;;;;;;112.40;61.58;;;;;;;;;;5017195;28;20033;-63
2021/03/26 05:55:00;;;;;;;115.43;62.38;;;;;;;;;;5032011;28;20029;-63
2021/03/26 05:57:26;;;;;;;112.80;61.85;;;;;;;;;;5031703;28;20029;-63
2021/03/26 06:00:17;;;;;;;119.18;66.13;;;;;;;;;;4999528;28;20133;-63
2021/03/26 06:03:02;;;;;;;99.03;55.58;;;;;;;;;;5024592;28;20073;-63
2021/03/26 06:06:05;;;;;;;96.97;54.38;;;;;;;;;;5009900;28;20048;-64
2021/03/26 06:08:55;;;;;;;105.22;60.00;;;;;;;;;;4996852;28;20049;-62
2021/03/26 06:11:58;;;;;;;96.53;58.05;;;;;;;;;;4996962;28;20133;-62
2021/03/26 06:14:49;;;;;;;100.53;56.08;;;;;;;;;;4986846;28;20042;-62
2021/03/26 06:17:50;;;;;;;93.88;50.53;;;;;;;;;;4996621;28;20042;-62
2021/03/26 06:21:04;;;;;;;103.43;54.65;;;;;;;;;;4996411;28;20074;-62
2021/03/26 06:24:11;;;;;;;94.38;51.40;;;;;;;;;;4989646;28;20375;-62
2021/03/26 06:26:50;;;;;;;107.28;55.88;;;;;;;;;;4995562;28;20069;-61
2021/03/26 06:29:18;;;;;;;111.00;61.13;;;;;;;;;;4997450;28;20023;-62
2021/03/26 06:31:58;;;;;;;112.50;61.58;;;;;;;;;;4979673;28;20505;-62
2021/03/26 06:35:09;;;;;;;105.30;56.60;;;;;;;;;;4994746;28;20042;-62
2021/03/26 06:37:41;;;;;;;110.20;59.70;;;;;;;;;;4997054;28;20058;-62
2021/03/26 06:40:07;;;;;;;111.07;60.00;;;;;;;;;;4999924;28;20033;-62
2021/03/26 06:42:45;;;;;;;112.80;59.80;;;;;;;;;;5013067;28;20026;-62
2021/03/26 06:45:29;;;;;;;119.30;63.75;;;;;;;;;;5015071;28;20359;-61
2021/03/26 06:48:13;;;;;;;143.98;75.97;;;;;;;;;;5014724;28;20056;-62
2021/03/26 06:50:54;;;;;;;135.63;70.35;;;;;;;;;;5013394;28;20045;-62
2021/03/26 06:53:38;;;;;;;138.88;74.70;;;;;;;;;;5015857;28;20026;-62
2021/03/26 06:56:07;;;;;;;133.82;68.28;;;;;;;;;;5016421;28;20061;-62
2021/03/26 06:58:40;;;;;;;117.03;61.83;;;;;;;;;;5016330;28;20052;-62
2021/03/26 07:01:15;;;;;;;111.75;59.33;;;;;;;;;;5015909;28;20026;-62
2021/03/26 07:03:40;;;;;;;117.25;60.13;;;;;;;;;;5016175;28;20030;-62
2021/03/26 07:06:06;;;;;;;117.65;60.35;;;;;;;;;;5015838;28;20045;-62
2021/03/26 07:08:47;;;;;;;118.55;60.78;;;;;;;;;;5015713;28;20053;-62
2021/03/26 07:11:25;;;;;;;136.05;69.15;;;;;;;;;;5015678;28;20026;-62
2021/03/26 07:13:54;;;;;;;142.90;69.10;;;;;;;;;;5015542;28;20030;-61
2021/03/26 07:16:38;;;;;;;198.05;96.78;;;;;;;;;;5031131;28;20022;-61
2021/03/26 07:19:25;;;;;;;200.30;98.32;;;;;;;;;;5015537;28;20111;-61
2021/03/26 07:22:09;;;;;;;160.10;86.45;;;;;;;;;;5015939;28;20037;-61
2021/03/26 07:24:53;;;;;;;164.48;87.25;;;;;;;;;;5015548;28;20462;-61
2021/03/26 07:27:33;;;;;;;162.85;88.75;;;;;;;;;;5015301;28;20036;-61
2021/03/26 07:30:11;;;;;;;160.00;87.95;;;;;;;;;;5015632;28;20065;-61
2021/03/26 07:32:46;;;;;;;149.43;79.43;;;;;;;;;;5015651;28;20065;-61
2021/03/26 07:35:17;;;;;;;111.38;62.38;;;;;;;;;;5015174;28;20022;-61
2021/03/26 07:38:00;;;;;;;110.00;60.63;;;;;;;;;;5014932;28;20100;-61
2021/03/26 07:40:31;;;;;;;105.93;60.17;;;;;;;;;;5015279;28;20497;-61
2021/03/26 07:43:09;;;;;;;101.75;55.85;;;;;;;;;;5015299;28;20030;-61
2021/03/26 07:45:53;;;;;;;98.25;56.20;;;;;;;;;;5015294;28;20036;-61
2021/03/26 07:48:18;;;;;;;92.43;53.38;;;;;;;;;;5014446;28;20384;-61
2021/03/26 07:51:09;;;;;;;93.07;53.40;;;;;;;;;;5013481;28;20018;-61
2021/03/26 07:53:37;;;;;;;82.55;48.08;;;;;;;;;;5015078;28;20026;-61
2021/03/26 07:56:20;;;;;;;97.97;55.17;;;;;;;;;;5014740;28;20014;-61
2021/03/26 07:59:05;;;;;;;87.30;48.40;;;;;;;;;;5014682;28;20029;-61
2021/03/26 08:01:33;;;;;;;78.05;42.67;;;;;;;;;;5013823;28;20037;-61
2021/03/26 08:04:04;;;;;;;76.10;43.35;;;;;;;;;;4996233;28;20024;-61
2021/03/26 08:06:50;;;;;;;79.53;44.97;;;;;;;;;;5029368;28;20026;-61
2021/03/26 08:09:22;;;;;;;76.72;43.75;;;;;;;;;;4996477;28;20100;-61
2021/03/26 08:11:57;;;;;;;77.28;44.47;;;;;;;;;;4996971;28;20049;-61
2021/03/26 08:14:31;;;;;;;77.47;44.42;;;;;;;;;;5029720;28;20442;-62
2021/03/26 08:17:12;;;;;;;75.43;43.13;;;;;;;;;;5029620;28;20053;-61
2021/03/26 08:19:56;;;;;;;79.28;44.72;;;;;;;;;;5029539;28;20511;-61
2021/03/26 08:22:40;;;;;;;80.93;46.58;;;;;;;;;;4996914;28;20030;-61
2021/03/26 08:25:16;;;;;;;77.72;43.47;;;;;;;;;;5014273;28;20410;-61
2021/03/26 08:27:49;;;;;;;78.47;43.00;;;;;;;;;;5014118;28;20059;-61
2021/03/26 08:30:32;;;;;;;71.97;37.38;;;;;;;;;;5014251;28;20021;-61
2021/03/26 08:33:13;;;;;;;87.75;50.15;;;;;;;;;;5028959;28;20026;-61
2021/03/26 08:35:54;;;;;;;60.50;34.75;;;;;;;;;;5010257;28;20021;-61
2021/03/26 08:38:19;;;;;;;;;;;;;;;;;;5014284;28;20080;-61
2021/03/26 08:41:05;;;;;;;54.30;30.05;;;;;;;;;;5024429;28;20345;-61
2021/03/26 08:43:33;;;;;;;51.53;27.00;;;;;;;;;;5014837;28;20029;-61
2021/03/26 08:46:14;;;;;;;56.60;31.70;;;;;;;;;;5011963;28;20064;-61
2021/03/26 08:48:39;;;;;;;;;;;;;;;;;;5029807;28;20037;-61
2021/03/26 08:51:15;;;;;;;48.88;25.00;;;;;;;;;;5013351;28;19905;-61
2021/03/26 08:53:47;;;;;;;46.80;23.50;;;;;;;;;;5013996;28;20025;-61
2021/03/26 08:56:38;;;;;;;50.13;27.70;;;;;;;;;;5028984;28;20371;-62
2021/03/26 08:59:15;;;;;;;54.85;29.27;;;;;;;;;;5014002;28;20546;-61
2021/03/26 09:02:01;;;;;;;50.15;27.00;;;;;;;;;;5014297;28;20077;-61
2021/03/26 09:04:40;;;;;;;53.30;28.15;;;;;;;;;;5013084;28;20026;-61
2021/03/26 09:07:21;;;;;;;53.25;28.95;;;;;;;;;;5014153;28;20057;-61
2021/03/26 09:09:47;;;;;;;;;;;;;;;;;;5014446;28;20033;-61
2021/03/26 09:12:32;;;;;;;50.25;27.70;;;;;;;;;;5013793;28;19905;-61
2021/03/26 09:15:19;;;;;;;47.28;24.60;;;;;;;;;;5013096;28;20030;-61
2021/03/26 09:17:57;;;;;;;41.70;21.88;;;;;;;;;;4992807;28;20042;-61
2021/03/26 09:20:39;;;;;;;53.88;27.15;;;;;;;;;;5009404;28;20081;-61
2021/03/26 09:23:14;;;;;;;58.47;31.70;;;;;;;;;;5021830;28;20026;-61
2021/03/26 09:25:40;;;;;;;47.33;24.65;;;;;;;;;;5013359;28;20026;-61
2021/03/26 09:28:08;;;;;;;45.92;22.88;;;;;;;;;;5013752;28;20021;-61
2021/03/26 09:30:37;;;;;;;42.35;22.27;;;;;;;;;;5013634;28;20041;-61
2021/03/26 09:33:05;;;;;;;53.78;29.75;;;;;;;;;;5014004;28;20006;-61
2021/03/26 09:35:40;;;;;;;55.78;30.80;;;;;;;;;;5013553;28;20057;-61
2021/03/26 09:38:13;;;;;;;66.57;38.00;;;;;;;;;;5013505;28;20091;-61
2021/03/26 09:40:49;;;;;;;72.90;39.70;;;;;;;;;;5011723;28;20026;-61
2021/03/26 09:43:31;;;;;;;47.80;27.33;;;;;;;;;;4995848;28;20557;-61
2021/03/26 09:45:59;;;;;;;46.55;25.05;;;;;;;;;;5013765;28;20041;-61
2021/03/26 09:48:30;;;;;;;34.42;19.00;;;;;;;;;;5013443;28;20501;-61
2021/03/26 09:51:25;;;;;;;42.38;22.63;;;;;;;;;;4996002;28;20534;-61
2021/03/26 09:53:55;;;;;;;63.47;36.55;;;;;;;;;;4991332;28;20493;-61
2021/03/26 09:56:31;;;;;;;53.25;29.25;;;;;;;;;;4998026;28;20358;-61
2021/03/26 09:59:19;;;;;;;53.75;29.98;;;;;;;;;;5013125;28;20497;-61
2021/03/26 10:01:50;;;;;;;58.22;32.60;;;;;;;;;;5013628;28;20474;-61
2021/03/26 10:04:16;;;;;;;;;;;;;;;;;;4995860;28;20129;-62
2021/03/26 10:06:51;;;;;;;40.78;22.33;;;;;;;;;;5012595;28;20055;-63
2021/03/26 10:12:06;;;;;;;40.95;23.20;;;;;;;;;;5013083;28;20065;-61
2021/03/26 10:14:35;;;;;;;55.60;31.67;;;;;;;;;;5013021;28;20117;-60
2021/03/26 10:17:00;;;;;;;47.25;27.48;;;;;;;;;;5028458;28;20459;-61
2021/03/26 10:19:29;;;;;;;45.63;25.35;;;;;;;;;;5028535;28;20050;-61
2021/03/26 10:21:58;;;;;;;53.00;31.80;;;;;;;;;;5013282;28;20038;-61
2021/03/26 10:24:28;;;;;;;52.00;30.80;;;;;;;;;;5013408;28;20034;-60
2021/03/26 10:27:12;;;;;;;154.48;62.55;;;;;;;;;;5016653;28;20490;-61
2021/03/26 10:29:56;;;;;;;43.25;25.25;;;;;;;;;;5031592;28;20037;-60
2021/03/26 10:32:25;;;;;;;37.38;19.58;;;;;;;;;;5015581;28;20398;-61
2021/03/26 10:34:51;;;;;;;37.17;21.48;;;;;;;;;;4999012;28;20035;-60
2021/03/26 10:37:17;;;;;;;41.08;23.80;;;;;;;;;;5015843;28;20421;-61
2021/03/26 10:40:01;;;;;;;108.57;49.90;;;;;;;;;;5016771;28;20025;-61
2021/03/26 10:42:33;;;;;;;42.90;23.95;;;;;;;;;;5031462;28;20402;-60
2021/03/26 10:45:05;;;;;;;41.72;24.60;;;;;;;;;;5015432;28;20026;-60
2021/03/26 10:47:40;;;;;;;36.90;22.67;;;;;;;;;;5016070;28;20034;-60
2021/03/26 10:50:11;;;;;;;35.42;21.42;;;;;;;;;;5015975;28;20121;-61
2021/03/26 10:52:45;;;;;;;33.60;19.23;;;;;;;;;;4997813;28;20029;-61
2021/03/26 10:55:17;;;;;;;29.45;17.63;;;;;;;;;;5031034;28;20062;-60
2021/03/26 10:58:06;;;;;;;34.92;19.63;;;;;;;;;;5016010;28;20441;-61
2021/03/26 11:00:34;;;;;;;34.20;19.83;;;;;;;;;;5010288;28;20061;-60
2021/03/26 11:03:01;;;;;;;34.13;19.15;;;;;;;;;;5016026;28;20112;-61
2021/03/26 11:05:36;;;;;;;31.60;19.60;;;;;;;;;;5015692;28;20041;-61
2021/03/26 11:08:02;;;;;;;27.17;17.58;;;;;;;;;;5030891;28;20038;-60
2021/03/26 11:10:31;;;;;;;33.92;18.70;;;;;;;;;;5015682;28;20084;-61
2021/03/26 11:13:02;;;;;;;29.10;17.38;;;;;;;;;;5015594;28;20018;-61
2021/03/26 11:15:37;;;;;;;41.75;25.88;;;;;;;;;;4998057;28;20029;-60
2021/03/26 11:18:14;;;;;;;40.50;25.25;;;;;;;;;;4997709;28;20068;-61
2021/03/26 11:20:48;;;;;;;36.60;23.67;;;;;;;;;;5015374;28;20030;-60
2021/03/26 11:23:24;;;;;;;37.63;22.95;;;;;;;;;;5015367;28;20034;-61
2021/03/26 11:26:10;;;;;;;28.02;18.45;;;;;;;;;;5015286;28;20432;-61
2021/03/26 11:28:40;;;;;;;43.88;28.50;;;;;;;;;;4997796;28;20030;-60
2021/03/26 11:31:24;;;;;;;47.78;27.98;;;;;;;;;;5015394;28;20018;-60
2021/03/26 11:33:52;;;;;;;26.98;15.80;;;;;;;;;;5015196;28;20113;-61
2021/03/26 11:36:37;;;;;;;32.13;19.70;;;;;;;;;;5014367;28;20022;-60
2021/03/26 11:39:09;;;;;;;37.42;23.55;;;;;;;;;;4997600;28;20120;-60
2021/03/26 11:41:39;;;;;;;30.35;20.42;;;;;;;;;;5014989;28;20037;-60
2021/03/26 11:44:05;;;;;;;24.15;15.23;;;;;;;;;;5015041;28;20513;-60
2021/03/26 11:46:37;;;;;;;40.40;24.65;;;;;;;;;;5014542;28;20049;-61
2021/03/26 11:49:12;;;;;;;40.60;26.55;;;;;;;;;;5014999;28;20483;-60
2021/03/26 11:51:40;;;;;;;37.50;24.30;;;;;;;;;;5011817;28;20033;-60
2021/03/26 11:54:18;;;;;;;42.88;26.90;;;;;;;;;;5014888;28;20018;-60
2021/03/26 11:56:47;;;;;;;33.72;20.25;;;;;;;;;;5030146;28;20026;-61
2021/03/26 11:59:18;;;;;;;27.17;17.30;;;;;;;;;;5014621;28;20022;-60
2021/03/26 12:01:53;;;;;;;29.17;18.83;;;;;;;;;;5014733;28;20073;-61
2021/03/26 12:04:23;;;;;;;36.30;23.10;;;;;;;;;;5014514;28;20022;-60
2021/03/26 12:07:01;;;;;;;34.45;21.85;;;;;;;;;;5014416;28;20041;-60
2021/03/26 12:09:33;;;;;;;35.72;23.35;;;;;;;;;;5029694;28;20068;-61
2021/03/26 12:12:05;;;;;;;39.88;24.15;;;;;;;;;;5014635;28;20085;-60
2021/03/26 12:14:39;;;;;;;36.42;23.83;;;;;;;;;;5014534;28;20072;-60
2021/03/26 12:17:28;;;;;;;30.85;18.77;;;;;;;;;;5014321;28;20041;-60
2021/03/26 12:20:00;;;;;;;27.33;17.35;;;;;;;;;;5014401;28;20040;-60
2021/03/26 12:22:42;;;;;;;26.00;17.33;;;;;;;;;;5014331;28;20432;-60
2021/03/26 12:25:26;;;;;;;30.27;19.48;;;;;;;;;;4996890;28;20041;-60
2021/03/26 12:27:52;;;;;;;33.40;22.05;;;;;;;;;;5014259;28;20033;-60
2021/03/26 12:30:25;;;;;;;37.47;25.80;;;;;;;;;;4996542;28;20466;-61
2021/03/26 12:33:01;;;;;;;37.25;24.02;;;;;;;;;;4996746;28;20520;-60
2021/03/26 12:35:29;;;;;;;37.10;23.35;;;;;;;;;;5014203;28;20030;-61
2021/03/26 12:37:58;;;;;;;36.35;22.80;;;;;;;;;;5014076;28;20029;-61
2021/03/26 12:40:39;;;;;;;38.00;22.52;;;;;;;;;;5014016;28;20105;-60
2021/03/26 12:43:04;;;;;;;;;;;;;;;;;;5014464;28;20049;-60
2021/03/26 12:45:35;;;;;;;33.22;22.33;;;;;;;;;;5014549;28;19905;-61
2021/03/26 12:48:03;;;;;;;26.38;16.13;;;;;;;;;;5014054;28;20037;-61
2021/03/26 12:50:32;;;;;;;24.52;15.38;;;;;;;;;;5013104;28;20085;-60
2021/03/26 12:53:05;;;;;;;31.95;19.27;;;;;;;;;;5014177;28;20030;-61
2021/03/26 12:55:31;;;;;;;31.58;19.92;;;;;;;;;;5014424;28;20037;-61
2021/03/26 12:58:15;;;;;;;23.13;14.88;;;;;;;;;;5013746;28;20069;-61
2021/03/26 13:00:45;;;;;;;37.45;22.42;;;;;;;;;;5013966;28;20044;-60
2021/03/26 13:03:29;;;;;;;37.13;22.30;;;;;;;;;;4996623;28;20530;-60
2021/03/26 13:06:00;;;;;;;25.15;15.57;;;;;;;;;;5013903;28;20033;-60
2021/03/26 13:08:28;;;;;;;30.35;21.02;;;;;;;;;;5013021;28;20049;-60
2021/03/26 13:10:54;;;;;;;35.60;21.17;;;;;;;;;;5013163;28;20018;-60
2021/03/26 13:13:31;;;;;;;23.30;15.30;;;;;;;;;;5013086;28;20041;-60
2021/03/26 13:16:12;;;;;;;28.05;12.90;;;;;;;;;;5013471;28;20051;-60
2021/03/26 13:18:51;;;;;;;37.40;21.70;;;;;;;;;;5013016;28;20056;-60
2021/03/26 13:21:29;;;;;;;23.88;16.10;;;;;;;;;;5013620;28;20470;-60
2021/03/26 13:24:07;;;;;;;27.73;17.00;;;;;;;;;;5013458;28;20052;-60
2021/03/26 13:26:33;;;;;;;26.90;15.35;;;;;;;;;;5013447;28;20474;-60
2021/03/26 13:29:05;;;;;;;27.25;16.40;;;;;;;;;;5013903;28;20033;-60
2021/03/26 13:31:36;;;;;;;27.52;15.98;;;;;;;;;;5028785;28;20030;-60
2021/03/26 13:34:02;;;;;;;29.40;18.85;;;;;;;;;;5014088;28;20022;-60
2021/03/26 13:36:27;;;;;;;27.80;16.45;;;;;;;;;;5012516;28;20030;-60
2021/03/26 13:38:53;;;;;;;37.78;23.00;;;;;;;;;;5012402;28;20406;-60
2021/03/26 13:41:23;;;;;;;28.52;18.23;;;;;;;;;;5013924;28;20481;-60
2021/03/26 13:44:04;;;;;;;42.05;23.08;;;;;;;;;;5028830;28;20034;-60
2021/03/26 13:46:32;;;;;;;36.83;23.08;;;;;;;;;;5013694;28;20034;-60
2021/03/26 13:49:11;;;;;;;37.33;22.92;;;;;;;;;;5012881;28;20028;-60
2021/03/26 13:51:37;;;;;;;34.20;22.33;;;;;;;;;;5013611;28;20525;-60
2021/03/26 13:54:22;;;;;;;44.60;27.27;;;;;;;;;;5013363;28;20014;-60
2021/03/26 13:56:49;;;;;;;43.78;26.67;;;;;;;;;;5013487;28;20402;-60
2021/03/26 13:59:19;;;;;;;49.17;26.30;;;;;;;;;;5013551;28;20026;-60
2021/03/26 14:01:49;;;;;;;42.10;24.85;;;;;;;;;;5017340;28;20026;-60
2021/03/26 14:04:24;;;;;;;41.90;26.90;;;;;;;;;;5017350;28;20030;-60
2021/03/26 14:06:55;;;;;;;49.10;28.05;;;;;;;;;;5017329;28;20457;-60
2021/03/26 14:09:40;;;;;;;46.47;29.63;;;;;;;;;;4999896;28;20026;-60
2021/03/26 14:12:09;;;;;;;45.17;27.13;;;;;;;;;;5017493;28;20375;-60
2021/03/26 14:14:47;;;;;;;45.15;25.70;;;;;;;;;;5017305;28;20022;-60
2021/03/26 14:17:19;;;;;;;45.17;27.02;;;;;;;;;;5016994;28;20053;-60
2021/03/26 14:19:57;;;;;;;42.50;24.92;;;;;;;;;;5016802;28;20037;-60
2021/03/26 14:22:36;;;;;;;46.13;29.05;;;;;;;;;;4999365;28;20539;-60
2021/03/26 14:25:09;;;;;;;49.85;27.15;;;;;;;;;;4999343;28;20520;-60
2021/03/26 14:27:34;;;;;;;46.58;27.50;;;;;;;;;;5017150;28;20532;-60
2021/03/26 14:30:09;;;;;;;43.20;27.20;;;;;;;;;;5016639;28;20061;-60
2021/03/26 14:32:43;;;;;;;39.92;24.77;;;;;;;;;;4999035;28;20030;-60
2021/03/26 14:35:20;;;;;;;35.72;22.88;;;;;;;;;;5016716;28;20022;-60
2021/03/26 14:37:52;;;;;;;37.08;24.00;;;;;;;;;;4999424;28;20026;-60
2021/03/26 14:40:24;;;;;;;34.65;22.50;;;;;;;;;;5032398;28;20030;-60
2021/03/26 14:42:56;;;;;;;44.67;26.52;;;;;;;;;;5016780;28;20488;-60
2021/03/26 14:45:27;;;;;;;39.50;25.08;;;;;;;;;;5030197;28;20378;-64
2021/03/26 14:48:03;;;;;;;40.47;24.70;;;;;;;;;;5014758;28;20069;-64
2021/03/26 14:50:30;;;;;;;34.60;23.20;;;;;;;;;;4995406;28;20497;-64
2021/03/26 14:52:58;;;;;;;40.80;24.23;;;;;;;;;;5014610;28;20022;-64
2021/03/26 14:55:26;;;;;;;37.03;23.10;;;;;;;;;;5026819;28;20049;-64
2021/03/26 14:57:59;;;;;;;36.42;22.33;;;;;;;;;;5035745;28;20112;-64
2021/03/26 15:00:24;;;;;;;39.20;24.92;;;;;;;;;;5018057;28;20029;-64
2021/03/26 15:03:10;;;;;;;38.45;22.67;;;;;;;;;;5035829;28;20465;-64